sensor_id;sensor_type;location;lat;lon;timestamp;temperature;humidity
74520;DHT22;63002;48.134;-1.948;2023-06-14T05:01:19;23.90;57.00
74520;DHT22;63002;48.134;-1.948;2023-06-14T05:03:46;23.90;57.10
74520;DHT22;63002;48.134;-1.948;2023-06-14T05:06:15;23.90;57.00
74520;DHT22;63002;48.134;-1.948;2023-06-14T05:08:41;23.90;57.00
74520;DHT22;63002;48.134;-1.948;2023-06-14T05:11:07;23.90;57.00
74520;DHT22;63002;48.134;-1.948;2023-06-14T05:13:32;23.90;57.00
74520;DHT22;63002;48.134;-1.948;2023-06-14T05:16:00;23.90;57.00
74520;DHT22;63002;48.134;-1.948;2023-06-14T05:18:26;23.90;57.00
74520;DHT22;63002;48.134;-1.948;2023-06-14T05:20:52;23.90;56.90
74520;DHT22;63002;48.134;-1.948;2023-06-14T05:23:17;23.90;56.90
74520;DHT22;63002;48.134;-1.948;2023-06-14T05:25:44;23.90;57.00
74520;DHT22;63002;48.134;-1.948;2023-06-14T05:28:10;23.90;57.00
74520;DHT22;63002;48.134;-1.948;2023-06-14T05:30:38;23.90;57.00
74520;DHT22;63002;48.134;-1.948;2023-06-14T05:33:03;23.90;57.00
74520;DHT22;63002;48.134;-1.948;2023-06-14T05:35:29;23.90;57.00
74520;DHT22;63002;48.134;-1.948;2023-06-14T05:37:55;23.90;57.00
74520;DHT22;63002;48.134;-1.948;2023-06-14T05:40:21;23.90;57.00
74520;DHT22;63002;48.134;-1.948;2023-06-14T05:42:46;23.90;57.10
74520;DHT22;63002;48.134;-1.948;2023-06-14T05:45:12;23.90;57.00
74520;DHT22;63002;48.134;-1.948;2023-06-14T05:47:38;23.90;56.90
74520;DHT22;63002;48.134;-1.948;2023-06-14T05:50:04;23.90;56.90
74520;DHT22;63002;48.134;-1.948;2023-06-14T05:52:30;23.90;56.90
74520;DHT22;63002;48.134;-1.948;2023-06-14T05:54:56;23.90;56.90
74520;DHT22;63002;48.134;-1.948;2023-06-14T05:57:22;23.90;56.80
74520;DHT22;63002;48.134;-1.948;2023-06-14T05:59:48;23.90;56.90
74520;DHT22;63002;48.134;-1.948;2023-06-14T06:02:14;23.90;56.80
74520;DHT22;63002;48.134;-1.948;2023-06-14T06:04:39;23.90;56.90
74520;DHT22;63002;48.134;-1.948;2023-06-14T06:07:05;24.00;56.70
74520;DHT22;63002;48.134;-1.948;2023-06-14T06:09:32;23.90;56.80
74520;DHT22;63002;48.134;-1.948;2023-06-14T06:11:58;23.80;56.90
74520;DHT22;63002;48.134;-1.948;2023-06-14T06:14:23;23.80;56.70
74520;DHT22;63002;48.134;-1.948;2023-06-14T06:16:49;23.70;56.70
74520;DHT22;63002;48.134;-1.948;2023-06-14T06:19:15;23.70;56.40
74520;DHT22;63002;48.134;-1.948;2023-06-14T06:21:40;23.70;56.20
74520;DHT22;63002;48.134;-1.948;2023-06-14T06:24:06;23.70;56.10
74520;DHT22;63002;48.134;-1.948;2023-06-14T06:26:32;23.60;56.00
74520;DHT22;63002;48.134;-1.948;2023-06-14T06:28:58;23.60;56.00
74520;DHT22;63002;48.134;-1.948;2023-06-14T06:31:24;23.60;55.80
74520;DHT22;63002;48.134;-1.948;2023-06-14T06:33:51;23.60;55.70
74520;DHT22;63002;48.134;-1.948;2023-06-14T06:36:17;23.60;55.60
74520;DHT22;63002;48.134;-1.948;2023-06-14T06:38:42;23.60;55.60
74520;DHT22;63002;48.134;-1.948;2023-06-14T06:41:08;23.60;55.60
74520;DHT22;63002;48.134;-1.948;2023-06-14T06:43:34;23.50;55.50
74520;DHT22;63002;48.134;-1.948;2023-06-14T06:45:59;23.50;55.50
74520;DHT22;63002;48.134;-1.948;2023-06-14T06:48:25;23.50;55.50
74520;DHT22;63002;48.134;-1.948;2023-06-14T06:50:51;23.50;55.40
74520;DHT22;63002;48.134;-1.948;2023-06-14T06:53:17;23.50;55.30
74520;DHT22;63002;48.134;-1.948;2023-06-14T06:55:44;23.50;55.20
74520;DHT22;63002;48.134;-1.948;2023-06-14T06:58:10;23.50;55.10
74520;DHT22;63002;48.134;-1.948;2023-06-14T07:00:36;23.50;55.10
74520;DHT22;63002;48.134;-1.948;2023-06-14T07:03:01;23.40;55.10
74520;DHT22;63002;48.134;-1.948;2023-06-14T07:05:29;23.10;55.10
74520;DHT22;63002;48.134;-1.948;2023-06-14T07:07:56;22.90;55.70
74520;DHT22;63002;48.134;-1.948;2023-06-14T07:10:21;22.90;56.10
74520;DHT22;63002;48.134;-1.948;2023-06-14T07:12:47;23.00;55.90
74520;DHT22;63002;48.134;-1.948;2023-06-14T07:15:14;23.00;55.60
74520;DHT22;63002;48.134;-1.948;2023-06-14T07:17:40;22.90;56.00
74520;DHT22;63002;48.134;-1.948;2023-06-14T07:20:06;23.00;56.00
74520;DHT22;63002;48.134;-1.948;2023-06-14T07:22:38;23.10;55.90
74520;DHT22;63002;48.134;-1.948;2023-06-14T07:25:07;23.20;55.80
74520;DHT22;63002;48.134;-1.948;2023-06-14T07:27:34;23.30;55.70
74520;DHT22;63002;48.134;-1.948;2023-06-14T07:29:59;23.30;55.60
74520;DHT22;63002;48.134;-1.948;2023-06-14T07:32:25;23.40;55.60
74520;DHT22;63002;48.134;-1.948;2023-06-14T07:34:51;23.40;55.70
74520;DHT22;63002;48.134;-1.948;2023-06-14T07:37:17;23.40;55.60
74520;DHT22;63002;48.134;-1.948;2023-06-14T07:39:42;23.50;55.60
74520;DHT22;63002;48.134;-1.948;2023-06-14T07:42:08;23.50;55.60
74520;DHT22;63002;48.134;-1.948;2023-06-14T07:44:34;23.50;55.70
74520;DHT22;63002;48.134;-1.948;2023-06-14T07:47:00;23.50;55.50
74520;DHT22;63002;48.134;-1.948;2023-06-14T07:49:26;23.40;55.80
74520;DHT22;63002;48.134;-1.948;2023-06-14T07:51:52;23.50;55.80
74520;DHT22;63002;48.134;-1.948;2023-06-14T07:54:19;23.60;55.60
74520;DHT22;63002;48.134;-1.948;2023-06-14T07:56:50;23.60;55.70
74520;DHT22;63002;48.134;-1.948;2023-06-14T07:59:16;23.30;55.90
74520;DHT22;63002;48.134;-1.948;2023-06-14T08:01:44;23.20;56.20
74520;DHT22;63002;48.134;-1.948;2023-06-14T08:04:15;23.30;56.10
74520;DHT22;63002;48.134;-1.948;2023-06-14T08:06:41;23.30;56.20
74520;DHT22;63002;48.134;-1.948;2023-06-14T08:09:12;23.30;56.20
74520;DHT22;63002;48.134;-1.948;2023-06-14T08:11:38;23.40;56.10
74520;DHT22;63002;48.134;-1.948;2023-06-14T08:14:06;23.50;56.00
74520;DHT22;63002;48.134;-1.948;2023-06-14T08:16:32;23.50;55.90
74520;DHT22;63002;48.134;-1.948;2023-06-14T08:18:58;23.60;55.90
74520;DHT22;63002;48.134;-1.948;2023-06-14T08:21:24;23.60;55.90
74520;DHT22;63002;48.134;-1.948;2023-06-14T08:23:54;23.60;55.80
74520;DHT22;63002;48.134;-1.948;2023-06-14T08:26:21;23.50;56.20
74520;DHT22;63002;48.134;-1.948;2023-06-14T08:28:49;23.50;56.50
74520;DHT22;63002;48.134;-1.948;2023-06-14T08:31:20;23.50;56.50
74520;DHT22;63002;48.134;-1.948;2023-06-14T08:33:50;23.60;56.30
74520;DHT22;63002;48.134;-1.948;2023-06-14T08:36:18;23.70;56.20
74520;DHT22;63002;48.134;-1.948;2023-06-14T08:38:44;23.70;56.10
74520;DHT22;63002;48.134;-1.948;2023-06-14T08:41:12;23.80;56.20
74520;DHT22;63002;48.134;-1.948;2023-06-14T08:43:42;23.80;56.10
74520;DHT22;63002;48.134;-1.948;2023-06-14T08:46:08;23.80;56.00
74520;DHT22;63002;48.134;-1.948;2023-06-14T08:48:42;23.80;56.00
74520;DHT22;63002;48.134;-1.948;2023-06-14T08:51:10;23.90;56.00
74520;DHT22;63002;48.134;-1.948;2023-06-14T08:53:39;23.90;56.00
74520;DHT22;63002;48.134;-1.948;2023-06-14T08:56:09;23.90;56.10
74520;DHT22;63002;48.134;-1.948;2023-06-14T08:58:45;23.80;56.40
74520;DHT22;63002;48.134;-1.948;2023-06-14T09:01:13;23.70;56.70
74520;DHT22;63002;48.134;-1.948;2023-06-14T09:03:43;23.70;56.90
74520;DHT22;63002;48.134;-1.948;2023-06-14T09:06:11;23.60;57.00
74520;DHT22;63002;48.134;-1.948;2023-06-14T09:08:45;23.60;57.00
74520;DHT22;63002;48.134;-1.948;2023-06-14T09:11:14;23.60;57.00
74520;DHT22;63002;48.134;-1.948;2023-06-14T09:13:42;23.70;56.90
74520;DHT22;63002;48.134;-1.948;2023-06-14T09:16:08;23.70;56.80
74520;DHT22;63002;48.134;-1.948;2023-06-14T09:18:36;23.70;56.80
74520;DHT22;63002;48.134;-1.948;2023-06-14T09:21:01;23.80;56.90
74520;DHT22;63002;48.134;-1.948;2023-06-14T09:23:27;23.80;56.80
74520;DHT22;63002;48.134;-1.948;2023-06-14T09:25:54;23.90;57.00
74520;DHT22;63002;48.134;-1.948;2023-06-14T09:28:20;23.90;56.90
74520;DHT22;63002;48.134;-1.948;2023-06-14T09:30:48;23.90;57.00
74520;DHT22;63002;48.134;-1.948;2023-06-14T09:33:17;23.90;56.90
74520;DHT22;63002;48.134;-1.948;2023-06-14T09:35:46;23.90;56.90
74520;DHT22;63002;48.134;-1.948;2023-06-14T09:38:12;23.90;56.80
74520;DHT22;63002;48.134;-1.948;2023-06-14T09:40:38;23.90;56.60
74520;DHT22;63002;48.134;-1.948;2023-06-14T09:43:07;24.00;56.60
74520;DHT22;63002;48.134;-1.948;2023-06-14T09:45:36;24.00;56.50
74520;DHT22;63002;48.134;-1.948;2023-06-14T09:48:06;24.00;56.50
74520;DHT22;63002;48.134;-1.948;2023-06-14T09:50:32;24.00;56.30
74520;DHT22;63002;48.134;-1.948;2023-06-14T09:53:07;24.10;56.30
74520;DHT22;63002;48.134;-1.948;2023-06-14T09:55:36;24.10;56.20
74520;DHT22;63002;48.134;-1.948;2023-06-14T09:58:05;24.10;56.20
74520;DHT22;63002;48.134;-1.948;2023-06-14T10:00:32;24.10;56.20
74520;DHT22;63002;48.134;-1.948;2023-06-14T10:03:27;24.10;56.10
74520;DHT22;63002;48.134;-1.948;2023-06-14T10:05:55;24.10;56.10
74520;DHT22;63002;48.134;-1.948;2023-06-14T10:08:27;24.10;56.10
74520;DHT22;63002;48.134;-1.948;2023-06-14T10:10:57;24.20;56.10
74520;DHT22;63002;48.134;-1.948;2023-06-14T10:13:23;24.20;56.00
74520;DHT22;63002;48.134;-1.948;2023-06-14T10:16:04;24.20;56.00
74520;DHT22;63002;48.134;-1.948;2023-06-14T10:21:43;24.20;56.00
74520;DHT22;63002;48.134;-1.948;2023-06-14T10:24:13;24.20;56.00
74520;DHT22;63002;48.134;-1.948;2023-06-14T10:26:58;24.20;56.00
74520;DHT22;63002;48.134;-1.948;2023-06-14T10:29:25;24.20;56.00
74520;DHT22;63002;48.134;-1.948;2023-06-14T10:31:57;24.20;56.00
74520;DHT22;63002;48.134;-1.948;2023-06-14T10:37:12;24.20;56.00
74520;DHT22;63002;48.134;-1.948;2023-06-14T10:39:42;24.20;56.00
74520;DHT22;63002;48.134;-1.948;2023-06-14T10:42:09;24.20;56.00
74520;DHT22;63002;48.134;-1.948;2023-06-14T10:44:40;24.20;56.00
74520;DHT22;63002;48.134;-1.948;2023-06-14T10:47:09;24.20;56.00
74520;DHT22;63002;48.134;-1.948;2023-06-14T10:49:43;24.20;56.50
74520;DHT22;63002;48.134;-1.948;2023-06-14T10:52:17;24.30;56.40
74520;DHT22;63002;48.134;-1.948;2023-06-14T10:57:30;24.40;56.40
74520;DHT22;63002;48.134;-1.948;2023-06-14T10:59:59;24.50;56.90
74520;DHT22;63002;48.134;-1.948;2023-06-14T11:05:26;24.50;57.30
74520;DHT22;63002;48.134;-1.948;2023-06-14T11:12:48;24.60;57.20
74520;DHT22;63002;48.134;-1.948;2023-06-14T11:15:14;24.60;57.20
74520;DHT22;63002;48.134;-1.948;2023-06-14T11:17:52;24.60;57.10
74520;DHT22;63002;48.134;-1.948;2023-06-14T11:20:25;24.50;57.00
74520;DHT22;63002;48.134;-1.948;2023-06-14T11:22:52;24.60;57.10
74520;DHT22;63002;48.134;-1.948;2023-06-14T11:25:18;24.60;57.10
74520;DHT22;63002;48.134;-1.948;2023-06-14T11:27:45;24.60;57.20
74520;DHT22;63002;48.134;-1.948;2023-06-14T11:30:12;24.60;57.30
74520;DHT22;63002;48.134;-1.948;2023-06-14T11:32:38;24.70;57.30
74520;DHT22;63002;48.134;-1.948;2023-06-14T11:35:05;24.70;57.60
74520;DHT22;63002;48.134;-1.948;2023-06-14T11:37:32;24.70;57.50
74520;DHT22;63002;48.134;-1.948;2023-06-14T11:40:02;24.70;57.50
74520;DHT22;63002;48.134;-1.948;2023-06-14T11:42:30;24.70;57.20
74520;DHT22;63002;48.134;-1.948;2023-06-14T11:44:56;24.70;57.10
74520;DHT22;63002;48.134;-1.948;2023-06-14T11:47:22;24.70;57.00
74520;DHT22;63002;48.134;-1.948;2023-06-14T11:49:48;24.70;56.90
74520;DHT22;63002;48.134;-1.948;2023-06-14T11:52:14;24.70;57.30
74520;DHT22;63002;48.134;-1.948;2023-06-14T11:54:41;24.80;57.30
74520;DHT22;63002;48.134;-1.948;2023-06-14T11:57:07;24.80;57.20
74520;DHT22;63002;48.134;-1.948;2023-06-14T11:59:44;24.70;57.00
74520;DHT22;63002;48.134;-1.948;2023-06-14T12:02:15;24.70;57.30
74520;DHT22;63002;48.134;-1.948;2023-06-14T12:04:42;24.70;57.10
74520;DHT22;63002;48.134;-1.948;2023-06-14T12:07:12;24.70;57.10
74520;DHT22;63002;48.134;-1.948;2023-06-14T12:12:18;24.80;57.00
74520;DHT22;63002;48.134;-1.948;2023-06-14T12:14:44;24.80;57.00
74520;DHT22;63002;48.134;-1.948;2023-06-14T12:17:09;24.80;56.90
74520;DHT22;63002;48.134;-1.948;2023-06-14T12:19:42;24.80;56.90
74520;DHT22;63002;48.134;-1.948;2023-06-14T12:22:13;24.80;56.90
74520;DHT22;63002;48.134;-1.948;2023-06-14T12:24:42;24.80;56.90
74520;DHT22;63002;48.134;-1.948;2023-06-14T12:27:08;24.80;56.90
74520;DHT22;63002;48.134;-1.948;2023-06-14T12:29:35;24.80;56.90
74520;DHT22;63002;48.134;-1.948;2023-06-14T12:32:01;24.80;56.90
74520;DHT22;63002;48.134;-1.948;2023-06-14T12:34:27;24.80;56.90
74520;DHT22;63002;48.134;-1.948;2023-06-14T12:36:56;24.80;56.90
74520;DHT22;63002;48.134;-1.948;2023-06-14T12:39:23;24.80;56.90
74520;DHT22;63002;48.134;-1.948;2023-06-14T12:41:50;24.80;56.90
74520;DHT22;63002;48.134;-1.948;2023-06-14T12:44:16;24.80;56.90
74520;DHT22;63002;48.134;-1.948;2023-06-14T12:46:42;24.80;56.90
74520;DHT22;63002;48.134;-1.948;2023-06-14T12:49:12;24.80;56.90
74520;DHT22;63002;48.134;-1.948;2023-06-14T12:51:39;24.80;56.90
74520;DHT22;63002;48.134;-1.948;2023-06-14T12:54:06;24.80;56.90
74520;DHT22;63002;48.134;-1.948;2023-06-14T12:56:33;24.80;56.80
74520;DHT22;63002;48.134;-1.948;2023-06-14T12:58:59;24.80;56.90
74520;DHT22;63002;48.134;-1.948;2023-06-14T13:01:25;24.80;57.00
74520;DHT22;63002;48.134;-1.948;2023-06-14T13:03:51;24.90;57.20
74520;DHT22;63002;48.134;-1.948;2023-06-14T13:06:21;24.90;57.20
74520;DHT22;63002;48.134;-1.948;2023-06-14T13:08:48;24.90;57.00
74520;DHT22;63002;48.134;-1.948;2023-06-14T13:11:14;24.90;56.90
74520;DHT22;63002;48.134;-1.948;2023-06-14T13:13:40;24.90;57.00
74520;DHT22;63002;48.134;-1.948;2023-06-14T13:16:06;24.90;57.00
74520;DHT22;63002;48.134;-1.948;2023-06-14T13:18:31;24.90;56.80
74520;DHT22;63002;48.134;-1.948;2023-06-14T13:20:57;24.90;56.90
74520;DHT22;63002;48.134;-1.948;2023-06-14T13:23:23;24.90;56.90
74520;DHT22;63002;48.134;-1.948;2023-06-14T13:25:49;24.90;56.80
74520;DHT22;63002;48.134;-1.948;2023-06-14T13:28:18;24.90;56.80
74520;DHT22;63002;48.134;-1.948;2023-06-14T13:30:44;24.90;56.80
74520;DHT22;63002;48.134;-1.948;2023-06-14T13:33:10;24.90;56.80
74520;DHT22;63002;48.134;-1.948;2023-06-14T13:35:36;24.90;56.80
74520;DHT22;63002;48.134;-1.948;2023-06-14T13:38:02;24.90;56.80
74520;DHT22;63002;48.134;-1.948;2023-06-14T13:40:27;24.90;56.80
74520;DHT22;63002;48.134;-1.948;2023-06-14T13:42:53;24.90;56.70
74520;DHT22;63002;48.134;-1.948;2023-06-14T13:45:19;24.90;56.70
74520;DHT22;63002;48.134;-1.948;2023-06-14T13:47:45;24.90;56.70
74520;DHT22;63002;48.134;-1.948;2023-06-14T13:50:14;24.90;56.70
74520;DHT22;63002;48.134;-1.948;2023-06-14T13:52:40;24.90;56.70
74520;DHT22;63002;48.134;-1.948;2023-06-14T13:55:05;24.90;56.70
74520;DHT22;63002;48.134;-1.948;2023-06-14T13:57:31;24.90;56.70
74520;DHT22;63002;48.134;-1.948;2023-06-14T13:59:58;24.90;56.70
74520;DHT22;63002;48.134;-1.948;2023-06-14T14:02:29;24.90;56.70
74520;DHT22;63002;48.134;-1.948;2023-06-14T14:04:55;24.90;56.70
74520;DHT22;63002;48.134;-1.948;2023-06-14T14:07:21;24.80;56.80
74520;DHT22;63002;48.134;-1.948;2023-06-14T14:09:47;24.90;56.70
74520;DHT22;63002;48.134;-1.948;2023-06-14T14:12:13;24.80;56.80
74520;DHT22;63002;48.134;-1.948;2023-06-14T14:14:40;24.90;56.70
74520;DHT22;63002;48.134;-1.948;2023-06-14T14:17:06;24.90;56.70
74520;DHT22;63002;48.134;-1.948;2023-06-14T14:19:32;24.80;56.70
74520;DHT22;63002;48.134;-1.948;2023-06-14T14:21:58;24.80;56.70
74520;DHT22;63002;48.134;-1.948;2023-06-14T14:24:24;24.80;56.70
74520;DHT22;63002;48.134;-1.948;2023-06-14T14:26:50;24.80;56.70
74520;DHT22;63002;48.134;-1.948;2023-06-14T14:29:19;24.80;56.70
74520;DHT22;63002;48.134;-1.948;2023-06-14T14:31:45;24.80;56.80
74520;DHT22;63002;48.134;-1.948;2023-06-14T14:34:11;24.80;56.70
74520;DHT22;63002;48.134;-1.948;2023-06-14T14:36:36;24.80;56.70
74520;DHT22;63002;48.134;-1.948;2023-06-14T14:39:04;24.80;56.70
74520;DHT22;63002;48.134;-1.948;2023-06-14T14:41:30;24.80;56.80
74520;DHT22;63002;48.134;-1.948;2023-06-14T14:43:56;24.90;56.70
74520;DHT22;63002;48.134;-1.948;2023-06-14T14:46:21;24.80;56.80
74520;DHT22;63002;48.134;-1.948;2023-06-14T14:48:47;24.80;56.70
74520;DHT22;63002;48.134;-1.948;2023-06-14T14:51:13;24.80;56.70
74520;DHT22;63002;48.134;-1.948;2023-06-14T14:53:38;24.80;56.70
74520;DHT22;63002;48.134;-1.948;2023-06-14T14:56:06;24.80;56.70
74520;DHT22;63002;48.134;-1.948;2023-06-14T14:58:32;24.90;56.90
74520;DHT22;63002;48.134;-1.948;2023-06-14T15:00:58;25.00;56.90
74520;DHT22;63002;48.134;-1.948;2023-06-14T15:03:23;25.00;56.70
74520;DHT22;63002;48.134;-1.948;2023-06-14T15:05:49;25.00;56.80
74520;DHT22;63002;48.134;-1.948;2023-06-14T15:08:15;25.10;56.80
74520;DHT22;63002;48.134;-1.948;2023-06-14T15:10:41;25.20;57.50
74520;DHT22;63002;48.134;-1.948;2023-06-14T15:13:07;25.30;57.90
74520;DHT22;63002;48.134;-1.948;2023-06-14T15:15:37;25.30;57.50
74520;DHT22;63002;48.134;-1.948;2023-06-14T15:18:03;25.30;57.20
74520;DHT22;63002;48.134;-1.948;2023-06-14T15:20:29;25.20;57.20
74520;DHT22;63002;48.134;-1.948;2023-06-14T15:22:55;25.10;57.30
74520;DHT22;63002;48.134;-1.948;2023-06-14T15:25:28;25.10;57.40
74520;DHT22;63002;48.134;-1.948;2023-06-14T15:27:54;25.00;57.30
74520;DHT22;63002;48.134;-1.948;2023-06-14T15:30:20;25.00;57.30
74520;DHT22;63002;48.134;-1.948;2023-06-14T15:32:46;25.00;57.30
74520;DHT22;63002;48.134;-1.948;2023-06-14T15:35:12;25.00;57.30
74520;DHT22;63002;48.134;-1.948;2023-06-14T15:37:38;25.00;57.30
74520;DHT22;63002;48.134;-1.948;2023-06-14T15:40:04;25.00;57.20
74520;DHT22;63002;48.134;-1.948;2023-06-14T15:42:30;25.00;57.20
74520;DHT22;63002;48.134;-1.948;2023-06-14T15:44:56;24.90;57.20
74520;DHT22;63002;48.134;-1.948;2023-06-14T15:47:22;24.90;57.20
74520;DHT22;63002;48.134;-1.948;2023-06-14T15:49:47;24.90;57.20
74520;DHT22;63002;48.134;-1.948;2023-06-14T15:52:13;25.00;57.20
74520;DHT22;63002;48.134;-1.948;2023-06-14T15:54:39;25.00;57.20
74520;DHT22;63002;48.134;-1.948;2023-06-14T15:57:04;25.00;57.10
74520;DHT22;63002;48.134;-1.948;2023-06-14T15:59:30;25.00;57.10
74520;DHT22;63002;48.134;-1.948;2023-06-14T16:01:56;25.20;57.00
74520;DHT22;63002;48.134;-1.948;2023-06-14T16:04:22;25.20;56.80
74520;DHT22;63002;48.134;-1.948;2023-06-14T16:06:48;25.20;56.80
74520;DHT22;63002;48.134;-1.948;2023-06-14T16:09:13;25.10;56.90
74520;DHT22;63002;48.134;-1.948;2023-06-14T16:11:39;25.10;57.00
74520;DHT22;63002;48.134;-1.948;2023-06-14T16:14:05;25.10;56.90
74520;DHT22;63002;48.134;-1.948;2023-06-14T16:16:31;25.10;56.90
74520;DHT22;63002;48.134;-1.948;2023-06-14T16:18:56;25.10;57.00
74520;DHT22;63002;48.134;-1.948;2023-06-14T16:21:22;25.20;56.60
74520;DHT22;63002;48.134;-1.948;2023-06-14T16:23:48;25.30;56.50
74520;DHT22;63002;48.134;-1.948;2023-06-14T16:26:15;25.30;56.40
74520;DHT22;63002;48.134;-1.948;2023-06-14T16:28:41;25.30;56.30
74520;DHT22;63002;48.134;-1.948;2023-06-14T16:31:11;25.30;56.20
74520;DHT22;63002;48.134;-1.948;2023-06-14T16:33:39;25.30;56.10
74520;DHT22;63002;48.134;-1.948;2023-06-14T16:36:05;25.30;56.00
74520;DHT22;63002;48.134;-1.948;2023-06-14T16:38:31;25.30;56.00
74520;DHT22;63002;48.134;-1.948;2023-06-14T16:40:58;25.30;55.90
74520;DHT22;63002;48.134;-1.948;2023-06-14T16:43:25;25.40;55.90
74520;DHT22;63002;48.134;-1.948;2023-06-14T16:45:54;25.40;55.90
74520;DHT22;63002;48.134;-1.948;2023-06-14T16:48:20;25.40;56.00
74520;DHT22;63002;48.134;-1.948;2023-06-14T16:50:46;25.40;56.00
74520;DHT22;63002;48.134;-1.948;2023-06-14T16:53:13;25.50;55.80
74520;DHT22;63002;48.134;-1.948;2023-06-14T16:55:39;25.50;55.70
74520;DHT22;63002;48.134;-1.948;2023-06-14T16:58:05;25.40;55.90
74520;DHT22;63002;48.134;-1.948;2023-06-14T17:00:32;25.40;56.10
74520;DHT22;63002;48.134;-1.948;2023-06-14T17:02:59;25.30;56.10
74520;DHT22;63002;48.134;-1.948;2023-06-14T17:05:25;25.30;56.10
74520;DHT22;63002;48.134;-1.948;2023-06-14T17:07:51;25.30;56.10
74520;DHT22;63002;48.134;-1.948;2023-06-14T17:10:17;25.30;56.10
74520;DHT22;63002;48.134;-1.948;2023-06-14T17:12:43;25.30;56.10
74520;DHT22;63002;48.134;-1.948;2023-06-14T17:15:09;25.30;56.20
74520;DHT22;63002;48.134;-1.948;2023-06-14T17:17:36;25.30;56.20
74520;DHT22;63002;48.134;-1.948;2023-06-14T17:20:07;25.30;56.10
74520;DHT22;63002;48.134;-1.948;2023-06-14T17:22:38;25.40;56.10
74520;DHT22;63002;48.134;-1.948;2023-06-14T17:25:10;25.40;56.10
74520;DHT22;63002;48.134;-1.948;2023-06-14T17:27:38;25.40;56.00
74520;DHT22;63002;48.134;-1.948;2023-06-14T17:30:04;25.30;56.10
74520;DHT22;63002;48.134;-1.948;2023-06-14T17:32:30;25.30;56.30
74520;DHT22;63002;48.134;-1.948;2023-06-14T17:34:56;25.40;56.20
74520;DHT22;63002;48.134;-1.948;2023-06-14T17:37:22;25.40;56.10
74520;DHT22;63002;48.134;-1.948;2023-06-14T17:39:51;25.50;56.10
74520;DHT22;63002;48.134;-1.948;2023-06-14T17:42:23;25.50;56.10
74520;DHT22;63002;48.134;-1.948;2023-06-14T17:44:54;25.50;56.20
74520;DHT22;63002;48.134;-1.948;2023-06-14T17:47:21;25.50;56.20
74520;DHT22;63002;48.134;-1.948;2023-06-14T17:49:51;25.50;56.20
74520;DHT22;63002;48.134;-1.948;2023-06-14T17:52:21;25.50;56.10
74520;DHT22;63002;48.134;-1.948;2023-06-14T17:54:47;25.50;56.20
74520;DHT22;63002;48.134;-1.948;2023-06-14T17:57:13;25.50;56.10
74520;DHT22;63002;48.134;-1.948;2023-06-14T17:59:41;25.50;56.10
74520;DHT22;63002;48.134;-1.948;2023-06-14T18:02:07;25.50;55.90
74520;DHT22;63002;48.134;-1.948;2023-06-14T18:04:33;25.50;55.10
74520;DHT22;63002;48.134;-1.948;2023-06-14T18:07:00;25.50;54.60
74520;DHT22;63002;48.134;-1.948;2023-06-14T18:09:26;25.50;54.60
74520;DHT22;63002;48.134;-1.948;2023-06-14T18:11:55;25.50;54.30
74520;DHT22;63002;48.134;-1.948;2023-06-14T18:14:22;25.50;54.70
74520;DHT22;63002;48.134;-1.948;2023-06-14T18:16:49;25.50;54.30
74520;DHT22;63002;48.134;-1.948;2023-06-14T18:19:15;25.50;54.20
74520;DHT22;63002;48.134;-1.948;2023-06-14T18:21:46;25.40;54.30
74520;DHT22;63002;48.134;-1.948;2023-06-14T18:24:13;25.50;54.10
74520;DHT22;63002;48.134;-1.948;2023-06-14T18:26:39;25.40;54.10
74520;DHT22;63002;48.134;-1.948;2023-06-14T18:29:05;25.40;54.00
74520;DHT22;63002;48.134;-1.948;2023-06-14T18:31:30;25.40;53.70
74520;DHT22;63002;48.134;-1.948;2023-06-14T18:33:56;25.40;54.10
74520;DHT22;63002;48.134;-1.948;2023-06-14T18:36:24;25.40;54.30
74520;DHT22;63002;48.134;-1.948;2023-06-14T18:38:50;25.40;54.60
74520;DHT22;63002;48.134;-1.948;2023-06-14T18:41:17;25.40;54.70
74520;DHT22;63002;48.134;-1.948;2023-06-14T18:43:43;25.40;54.70
74520;DHT22;63002;48.134;-1.948;2023-06-14T18:46:09;25.40;53.90
74520;DHT22;63002;48.134;-1.948;2023-06-14T18:48:35;25.30;53.50
74520;DHT22;63002;48.134;-1.948;2023-06-14T18:51:03;25.30;53.70
74520;DHT22;63002;48.134;-1.948;2023-06-14T18:53:37;25.30;54.10
74520;DHT22;63002;48.134;-1.948;2023-06-14T18:56:02;25.30;54.20
74520;DHT22;63002;48.134;-1.948;2023-06-14T18:58:28;25.30;54.60
74520;DHT22;63002;48.134;-1.948;2023-06-14T19:00:54;25.30;54.80
74520;DHT22;63002;48.134;-1.948;2023-06-14T19:03:19;25.30;55.00
74520;DHT22;63002;48.134;-1.948;2023-06-14T19:05:45;25.30;55.10
74520;DHT22;63002;48.134;-1.948;2023-06-14T19:08:11;25.30;55.10
74520;DHT22;63002;48.134;-1.948;2023-06-14T19:10:36;25.30;55.10
74520;DHT22;63002;48.134;-1.948;2023-06-14T19:13:02;25.30;55.30
74520;DHT22;63002;48.134;-1.948;2023-06-14T19:15:28;25.30;55.40
74520;DHT22;63002;48.134;-1.948;2023-06-14T19:17:57;25.30;55.40
74520;DHT22;63002;48.134;-1.948;2023-06-14T19:20:24;25.30;55.50
74520;DHT22;63002;48.134;-1.948;2023-06-14T19:22:50;25.30;55.60
74520;DHT22;63002;48.134;-1.948;2023-06-14T19:25:16;25.30;55.60
74520;DHT22;63002;48.134;-1.948;2023-06-14T19:27:41;25.30;55.60
74520;DHT22;63002;48.134;-1.948;2023-06-14T19:30:07;25.30;55.70
74520;DHT22;63002;48.134;-1.948;2023-06-14T19:32:33;25.30;55.80
74520;DHT22;63002;48.134;-1.948;2023-06-14T19:35:01;25.30;55.80
74520;DHT22;63002;48.134;-1.948;2023-06-14T19:37:29;25.30;55.90
74520;DHT22;63002;48.134;-1.948;2023-06-14T19:39:57;25.30;55.80
74520;DHT22;63002;48.134;-1.948;2023-06-14T19:42:23;25.30;55.90
74520;DHT22;63002;48.134;-1.948;2023-06-14T19:44:49;25.30;55.90
74520;DHT22;63002;48.134;-1.948;2023-06-14T19:47:15;25.30;55.90
74520;DHT22;63002;48.134;-1.948;2023-06-14T19:49:41;25.30;55.80
74520;DHT22;63002;48.134;-1.948;2023-06-14T19:52:06;25.30;55.80
74520;DHT22;63002;48.134;-1.948;2023-06-14T19:54:32;25.30;55.80
74520;DHT22;63002;48.134;-1.948;2023-06-14T19:56:58;25.30;55.80
74520;DHT22;63002;48.134;-1.948;2023-06-14T19:59:24;25.30;55.80
74520;DHT22;63002;48.134;-1.948;2023-06-14T20:01:49;25.20;55.70
74520;DHT22;63002;48.134;-1.948;2023-06-14T20:04:15;25.30;55.80
74520;DHT22;63002;48.134;-1.948;2023-06-14T20:06:41;25.20;55.80
74520;DHT22;63002;48.134;-1.948;2023-06-14T20:09:06;25.20;55.80
74520;DHT22;63002;48.134;-1.948;2023-06-14T20:11:39;25.20;55.80
74520;DHT22;63002;48.134;-1.948;2023-06-14T20:14:05;25.20;55.80
74520;DHT22;63002;48.134;-1.948;2023-06-14T20:16:32;25.20;55.90
74520;DHT22;63002;48.134;-1.948;2023-06-14T20:18:58;25.10;55.70
74520;DHT22;63002;48.134;-1.948;2023-06-14T20:21:28;25.10;55.60
74520;DHT22;63002;48.134;-1.948;2023-06-14T20:23:55;25.10;55.30
74520;DHT22;63002;48.134;-1.948;2023-06-14T20:26:20;25.10;55.30
74520;DHT22;63002;48.134;-1.948;2023-06-14T20:28:46;25.10;55.20
74520;DHT22;63002;48.134;-1.948;2023-06-14T20:31:14;25.10;55.10
74520;DHT22;63002;48.134;-1.948;2023-06-14T20:33:44;25.10;55.10